Time;durP1;ratioP1;P1;durP2;ratioP2;P2;SDS_P1;SDS_P2;PMS_P1;PMS_P2;Temp;Humidity;BMP_temperature;BMP_pressure;BME280_temperature;BME280_humidity;BME280_pressure;Samples;Min_cycle;Max_cycle;Signal;HPM_P1;HPM_P2
2020/12/13 00:01:17;;;;;;;44.90;22.73;;;;;;;6.74;100.00;100533.66;5087693;28;20028;-69
2020/12/13 00:03:42;;;;;;;45.95;23.77;;;;;;;6.86;100.00;100529.75;5094891;28;20024;-70
2020/12/13 00:06:07;;;;;;;40.47;22.33;;;;;;;6.90;100.00;100537.50;5094814;28;20041;-69
2020/12/13 00:08:33;;;;;;;46.88;22.35;;;;;;;6.86;100.00;100535.00;5088192;28;20032;-69
2020/12/13 00:10:58;;;;;;;46.47;23.73;;;;;;;6.94;100.00;100525.97;5093613;28;20020;-68
2020/12/13 00:13:24;;;;;;;47.70;22.30;;;;;;;6.88;100.00;100526.19;5091364;28;20060;-69
2020/12/13 00:15:49;;;;;;;45.70;22.00;;;;;;;6.90;100.00;100529.59;5100814;28;20156;-69
2020/12/13 00:18:14;;;;;;;43.83;22.20;;;;;;;6.87;100.00;100532.31;5093246;28;20094;-69
2020/12/13 00:20:40;;;;;;;41.13;21.55;;;;;;;6.85;100.00;100531.53;5097455;28;20074;-69
2020/12/13 00:23:05;;;;;;;46.70;21.73;;;;;;;6.90;100.00;100534.00;5093548;28;20044;-69
2020/12/13 00:25:30;;;;;;;43.08;20.77;;;;;;;6.97;100.00;100535.50;5098464;27;20415;-69
2020/12/13 00:27:56;;;;;;;39.08;21.63;;;;;;;6.90;100.00;100537.50;5090650;28;20385;-69
2020/12/13 00:30:21;;;;;;;45.72;21.95;;;;;;;6.90;100.00;100534.00;5097949;28;20032;-69
2020/12/13 00:32:46;;;;;;;42.50;22.05;;;;;;;6.90;100.00;100544.50;5093899;28;20489;-68
2020/12/13 00:35:13;;;;;;;44.10;21.98;;;;;;;6.86;100.00;100548.16;5096062;28;20031;-68
2020/12/13 00:37:39;;;;;;;42.80;22.45;;;;;;;6.94;100.00;100544.38;5095880;28;20025;-68
2020/12/13 00:40:04;;;;;;;43.00;19.17;;;;;;;7.00;100.00;100543.28;5097687;28;20035;-68
2020/12/13 00:42:30;;;;;;;42.75;20.42;;;;;;;6.92;100.00;100546.16;5092713;28;20482;-68
2020/12/13 00:44:55;;;;;;;46.75;22.65;;;;;;;6.93;100.00;100557.56;5091554;28;20028;-67
2020/12/13 00:47:20;;;;;;;43.38;22.48;;;;;;;6.93;100.00;100558.41;5091318;28;20032;-68
2020/12/13 00:49:45;;;;;;;47.05;21.38;;;;;;;6.91;100.00;100556.72;5094174;28;20028;-67
2020/12/13 00:52:11;;;;;;;55.03;22.30;;;;;;;6.98;100.00;100555.63;5092449;28;20075;-68
2020/12/13 00:54:36;;;;;;;43.45;21.80;;;;;;;6.94;100.00;100564.53;5089639;28;20085;-69
2020/12/13 00:57:01;;;;;;;50.40;22.02;;;;;;;7.00;100.00;100564.31;5093852;28;20066;-68
2020/12/13 00:59:27;;;;;;;51.97;22.08;;;;;;;7.00;100.00;100570.41;5093307;28;20498;-68
2020/12/13 01:01:52;;;;;;;49.13;23.20;;;;;;;7.02;100.00;100575.63;5087033;28;20032;-68
2020/12/13 01:04:18;;;;;;;50.60;23.00;;;;;;;7.01;100.00;100580.00;5091303;28;20089;-68
2020/12/13 01:06:43;;;;;;;44.42;21.23;;;;;;;6.97;100.00;100572.28;5088612;28;20040;-67
2020/12/13 01:09:08;;;;;;;50.05;21.52;;;;;;;6.95;100.00;100580.22;5089087;28;20054;-68
2020/12/13 01:11:34;;;;;;;46.05;21.65;;;;;;;6.96;100.00;100583.72;5088452;28;20533;-68
2020/12/13 01:14:01;;;;;;;45.38;22.55;;;;;;;7.01;100.00;100589.66;5094254;28;20453;-69
2020/12/13 01:16:27;;;;;;;44.90;19.08;;;;;;;6.99;100.00;100583.63;5090933;28;20028;-68
2020/12/13 01:18:54;;;;;;;44.53;20.17;;;;;;;7.03;100.00;100600.13;5100325;28;20028;-68
2020/12/13 01:21:24;;;;;;;46.60;19.17;;;;;;;7.03;100.00;100598.38;5089105;28;20031;-68
2020/12/13 01:23:50;;;;;;;41.42;19.30;;;;;;;7.02;100.00;100604.50;5090231;28;20438;-68
2020/12/13 01:26:17;;;;;;;45.05;21.17;;;;;;;7.01;100.00;100605.44;5086914;28;20082;-70
2020/12/13 01:28:44;;;;;;;42.08;19.42;;;;;;;7.04;100.00;100607.13;5095158;28;20110;-68
2020/12/13 01:31:12;;;;;;;37.58;17.45;;;;;;;7.05;100.00;100609.69;5087735;28;20064;-67
2020/12/13 01:33:38;;;;;;;42.13;18.05;;;;;;;7.05;100.00;100612.31;5088590;28;20044;-68
2020/12/13 01:36:04;;;;;;;36.75;17.05;;;;;;;7.03;100.00;100616.78;5090119;28;20074;-68
2020/12/13 01:38:29;;;;;;;37.10;17.85;;;;;;;7.09;100.00;100624.44;5091132;28;20039;-67
2020/12/13 01:40:57;;;;;;;37.03;16.88;;;;;;;7.12;100.00;100626.94;5086221;28;20408;-67
2020/12/13 01:43:23;;;;;;;43.38;17.80;;;;;;;7.10;100.00;100625.31;5090064;28;20027;-68
2020/12/13 01:45:48;;;;;;;37.15;15.45;;;;;;;7.12;100.00;100631.34;5096585;27;20367;-69
2020/12/13 01:48:14;;;;;;;36.20;16.63;;;;;;;7.14;100.00;100632.19;5092382;28;20037;-69
2020/12/13 01:50:44;;;;;;;40.63;17.25;;;;;;;7.13;100.00;100633.06;5087760;28;20025;-69
2020/12/13 01:53:14;;;;;;;34.60;16.10;;;;;;;7.12;100.00;100631.34;5094814;27;20025;-69
2020/12/13 01:55:41;;;;;;;30.00;14.77;;;;;;;7.13;100.00;100641.84;5092754;28;20370;-68
2020/12/13 01:58:12;;;;;;;33.72;16.10;;;;;;;7.12;100.00;100633.97;5088705;28;20024;-68
2020/12/13 02:00:38;;;;;;;33.20;14.90;;;;;;;7.15;100.00;100641.78;5091402;28;20481;-69
2020/12/13 02:03:06;;;;;;;34.72;14.82;;;;;;;7.23;100.00;100645.03;5092062;28;20039;-69
2020/12/13 02:05:32;;;;;;;35.83;15.80;;;;;;;7.16;100.00;100646.13;5092814;28;20023;-69
2020/12/13 02:08:01;;;;;;;28.75;13.70;;;;;;;7.14;100.00;100654.06;5092054;28;20059;-69
2020/12/13 02:10:26;;;;;;;29.45;14.73;;;;;;;7.19;100.00;100656.53;5088621;28;20035;-68
2020/12/13 02:12:52;;;;;;;33.47;15.18;;;;;;;7.16;100.00;100657.47;5090492;28;20032;-67
2020/12/13 02:15:18;;;;;;;26.08;12.40;;;;;;;7.16;100.00;100657.47;5095114;28;20138;-68
2020/12/13 02:17:44;;;;;;;30.73;13.50;;;;;;;7.15;100.00;100654.91;5086237;28;20107;-69
2020/12/13 02:20:12;;;;;;;28.75;12.45;;;;;;;7.14;100.00;100658.47;5092006;28;20024;-68
2020/12/13 02:22:39;;;;;;;22.65;12.77;;;;;;;7.13;100.00;100661.97;5099622;28;20046;-69
2020/12/13 02:25:09;;;;;;;22.02;12.63;;;;;;;7.08;100.00;100658.63;5090228;28;20121;-68
2020/12/13 02:27:34;;;;;;;26.58;13.32;;;;;;;7.14;100.00;100663.72;5093321;28;20032;-68
2020/12/13 02:30:00;;;;;;;23.25;10.93;;;;;;;7.12;100.00;100676.88;5097577;28;20043;-69
2020/12/13 02:32:25;;;;;;;22.33;10.75;;;;;;;7.11;100.00;100672.53;5089425;28;20030;-69
2020/12/13 02:34:50;;;;;;;21.73;10.48;;;;;;;7.13;100.00;100669.84;5093913;28;20180;-68
2020/12/13 02:37:16;;;;;;;16.77;9.93;;;;;;;7.09;100.00;100676.16;5091058;28;20020;-68
2020/12/13 02:39:42;;;;;;;21.10;11.95;;;;;;;7.11;100.00;100675.19;5094551;28;20533;-68
2020/12/13 02:42:07;;;;;;;18.52;10.68;;;;;;;7.03;100.00;100671.97;5088702;28;20052;-67
2020/12/13 02:44:33;;;;;;;20.58;11.35;;;;;;;7.03;100.00;100685.09;5091638;28;20103;-68
2020/12/13 02:46:58;;;;;;;21.20;10.98;;;;;;;6.94;100.00;100686.25;5085405;28;20383;-68
2020/12/13 02:49:23;;;;;;;17.50;10.23;;;;;;;6.97;100.00;100686.13;5091139;28;20092;-68
2020/12/13 02:51:49;;;;;;;21.30;10.52;;;;;;;6.97;100.00;100698.41;5089337;28;20017;-68
2020/12/13 02:54:14;;;;;;;17.77;9.68;;;;;;;7.01;100.00;100694.78;5093150;28;20226;-69
2020/12/13 02:56:41;;;;;;;22.98;11.07;;;;;;;7.00;100.00;100693.91;5083403;28;20016;-69
2020/12/13 02:59:07;;;;;;;18.05;9.98;;;;;;;7.09;100.00;100703.28;5086377;28;20024;-69
2020/12/13 03:04:54;;;;;;;25.48;11.98;;;;;;;7.09;100.00;100708.53;5081027;28;20054;-69
2020/12/13 03:07:19;;;;;;;24.40;11.00;;;;;;;7.09;100.00;100708.53;5089454;28;20048;-69
2020/12/13 03:09:44;;;;;;;25.73;12.05;;;;;;;7.09;100.00;100718.19;5083780;28;20028;-68
2020/12/13 03:12:10;;;;;;;22.13;11.57;;;;;;;7.08;100.00;100713.81;5089297;28;20101;-68
2020/12/13 03:14:35;;;;;;;21.73;12.35;;;;;;;7.09;100.00;100713.81;5089936;28;20020;-67
2020/12/13 03:17:00;;;;;;;20.33;12.07;;;;;;;7.10;100.00;100719.91;5080654;28;20091;-67
2020/12/13 03:19:26;;;;;;;24.50;11.13;;;;;;;7.08;100.00;100719.09;5092314;28;20043;-68
2020/12/13 03:21:51;;;;;;;21.00;12.23;;;;;;;7.07;100.00;100714.75;5086294;28;20024;-68
2020/12/13 03:24:17;;;;;;;25.23;12.70;;;;;;;7.05;100.00;100721.81;5089813;28;20043;-68
2020/12/13 03:26:43;;;;;;;24.15;13.13;;;;;;;7.05;100.00;100719.19;5090855;28;20055;-66
2020/12/13 03:29:09;;;;;;;19.35;11.80;;;;;;;7.04;100.00;100726.22;5088581;28;20024;-66
2020/12/13 03:31:35;;;;;;;25.42;13.05;;;;;;;7.00;100.00;100735.97;5083618;28;20036;-66
2020/12/13 03:34:00;;;;;;;31.38;15.52;;;;;;;6.96;100.00;100733.47;5095740;28;20024;-67
2020/12/13 03:36:25;;;;;;;26.13;12.95;;;;;;;6.95;100.00;100740.50;5089468;28;20068;-67
2020/12/13 03:38:51;;;;;;;32.35;13.90;;;;;;;6.93;100.00;100741.47;5090652;28;20042;-67
2020/12/13 03:41:16;;;;;;;27.73;13.63;;;;;;;6.94;100.00;100735.31;5087537;28;20028;-67
2020/12/13 03:43:41;;;;;;;24.17;13.93;;;;;;;6.97;100.00;100741.31;5092658;28;20485;-67
2020/12/13 03:46:06;;;;;;;27.20;12.95;;;;;;;6.99;100.00;100738.66;5090580;28;20034;-67
2020/12/13 03:48:32;;;;;;;24.80;13.60;;;;;;;6.96;100.00;100747.47;5100434;28;20062;-67
2020/12/13 03:50:57;;;;;;;24.23;13.57;;;;;;;6.99;100.00;100754.41;5087514;28;20526;-67
2020/12/13 03:53:22;;;;;;;26.65;13.40;;;;;;;6.97;100.00;100751.81;5092073;28;20478;-67
2020/12/13 03:55:48;;;;;;;23.58;12.88;;;;;;;7.00;100.00;100754.34;5081841;28;20042;-67
2020/12/13 03:58:13;;;;;;;31.30;13.80;;;;;;;7.02;100.00;100756.94;5089105;28;20045;-69
2020/12/13 04:00:38;;;;;;;25.75;13.93;;;;;;;6.97;100.00;100762.31;5081220;28;20145;-68
2020/12/13 04:03:04;;;;;;;26.95;14.52;;;;;;;6.98;100.00;100771.09;5090020;28;20040;-68
2020/12/13 04:05:31;;;;;;;25.17;13.50;;;;;;;6.96;100.00;100767.63;5091656;28;20081;-68
2020/12/13 04:07:56;;;;;;;24.05;14.35;;;;;;;6.98;100.00;100774.59;5085907;28;20046;-68
2020/12/13 04:10:21;;;;;;;23.77;12.07;;;;;;;7.00;100.00;100777.16;5085129;28;20114;-69
2020/12/13 04:12:47;;;;;;;25.98;13.30;;;;;;;6.99;100.00;100773.66;5088216;28;20024;-68
2020/12/13 04:15:13;;;;;;;22.20;11.82;;;;;;;7.01;100.00;100768.34;5088134;28;20028;-69
2020/12/13 04:17:38;;;;;;;24.63;13.45;;;;;;;7.00;100.00;100778.00;5094549;28;20027;-68
2020/12/13 04:20:05;;;;;;;24.05;12.43;;;;;;;7.03;100.00;100777.06;5092118;28;20481;-68
2020/12/13 04:22:31;;;;;;;20.52;12.00;;;;;;;7.04;100.00;100783.19;5095345;28;20036;-69
2020/12/13 04:24:56;;;;;;;24.75;11.65;;;;;;;7.05;100.00;100785.75;5093815;28;20030;-68
2020/12/13 04:27:21;;;;;;;21.17;10.88;;;;;;;7.01;100.00;100779.72;5096953;28;20020;-69
2020/12/13 04:29:47;;;;;;;17.88;10.98;;;;;;;7.03;100.00;100790.22;5092151;28;20074;-68
2020/12/13 04:32:12;;;;;;;16.85;10.98;;;;;;;7.00;100.00;100785.91;5097661;28;20047;-69
2020/12/13 04:34:38;;;;;;;19.95;11.98;;;;;;;7.08;100.00;100788.31;5092452;28;20032;-68
2020/12/13 04:37:04;;;;;;;20.73;11.40;;;;;;;7.10;100.00;100791.72;5094609;28;20023;-67
2020/12/13 04:39:29;;;;;;;22.48;11.68;;;;;;;7.03;100.00;100790.22;5089699;28;20465;-69
2020/12/13 04:41:55;;;;;;;18.58;10.25;;;;;;;7.09;100.00;100786.53;5088317;28;20034;-70
2020/12/13 04:44:20;;;;;;;15.45;10.73;;;;;;;7.10;100.00;100799.63;5101491;28;20032;-69
2020/12/13 04:46:46;;;;;;;19.00;10.70;;;;;;;7.13;100.00;100796.00;5093577;28;20034;-67
2020/12/13 04:49:12;;;;;;;22.75;10.65;;;;;;;7.14;100.00;100796.00;5093477;28;20028;-67
2020/12/13 04:51:41;;;;;;;18.88;12.68;;;;;;;7.10;100.00;100801.38;5087457;28;20440;-67
2020/12/13 04:54:07;;;;;;;19.67;11.80;;;;;;;7.08;100.00;100800.56;5093812;28;20292;-68
2020/12/13 04:56:34;;;;;;;22.63;13.55;;;;;;;7.10;100.00;100801.38;5092924;28;20161;-67
2020/12/13 04:59:02;;;;;;;22.27;14.25;;;;;;;7.15;100.00;100804.72;5085244;28;20023;-68
2020/12/13 05:01:28;;;;;;;23.67;13.18;;;;;;;7.11;100.00;100806.59;5088037;28;20097;-68
2020/12/13 05:03:53;;;;;;;24.48;13.32;;;;;;;7.12;100.00;100807.44;5084222;28;20019;-69
2020/12/13 05:06:19;;;;;;;25.38;13.60;;;;;;;7.11;100.00;100811.84;5087415;28;20270;-68
2020/12/13 05:08:47;;;;;;;20.23;12.88;;;;;;;7.12;100.00;100810.94;5097398;28;20539;-69
2020/12/13 05:11:12;;;;;;;25.90;15.60;;;;;;;7.12;100.00;100807.44;5088213;28;20558;-67
2020/12/13 05:13:38;;;;;;;28.05;15.15;;;;;;;7.11;100.00;100809.22;5082695;28;20064;-67
2020/12/13 05:16:06;;;;;;;26.80;15.95;;;;;;;7.12;100.00;100812.69;5090868;28;20098;-67
2020/12/13 05:18:32;;;;;;;29.05;15.00;;;;;;;7.08;100.00;100813.69;5086719;28;20378;-68
2020/12/13 05:20:57;;;;;;;28.15;15.52;;;;;;;7.08;100.00;100818.94;5091509;28;20032;-67
2020/12/13 05:23:23;;;;;;;30.17;13.27;;;;;;;7.07;100.00;100814.59;5087177;28;20060;-67
2020/12/13 05:25:52;;;;;;;24.98;14.23;;;;;;;7.06;100.00;100811.13;5085784;28;20029;-70
2020/12/13 05:28:23;;;;;;;26.75;13.98;;;;;;;7.01;100.00;100815.66;5094987;28;20042;-67
2020/12/13 05:30:49;;;;;;;31.95;15.68;;;;;;;7.03;100.00;100819.13;5079647;28;20052;-67
2020/12/13 05:33:24;;;;;;;29.23;14.05;;;;;;;6.98;100.00;100818.41;5091898;28;20024;-67
2020/12/13 05:35:49;;;;;;;29.45;13.82;;;;;;;6.99;100.00;100815.72;5087161;28;20035;-66
2020/12/13 05:38:16;;;;;;;29.77;15.52;;;;;;;7.01;100.00;100823.53;5092161;28;20385;-66
2020/12/13 05:40:42;;;;;;;28.65;14.05;;;;;;;6.95;100.00;100819.34;5082961;28;20444;-67
2020/12/13 05:43:17;;;;;;;25.83;14.05;;;;;;;7.00;100.00;100827.09;5091547;28;20061;-67
2020/12/13 05:46:16;;;;;;;24.80;13.95;;;;;;;6.98;100.00;100829.75;5093722;28;20028;-67
2020/12/13 05:51:20;;;;;;;30.27;13.77;;;;;;;6.93;100.00;100820.31;5089202;28;20028;-67
2020/12/13 05:53:46;;;;;;;21.52;12.18;;;;;;;6.90;100.00;100823.00;5090610;28;20085;-67
2020/12/13 05:56:11;;;;;;;24.52;13.13;;;;;;;6.85;100.00;100825.75;5086913;28;20032;-67
2020/12/13 05:58:37;;;;;;;24.33;11.93;;;;;;;6.82;100.00;100831.09;5091182;28;20441;-66
2020/12/13 06:01:05;;;;;;;19.25;10.88;;;;;;;6.77;100.00;100834.75;5090985;28;20029;-66
2020/12/13 06:03:33;;;;;;;19.73;11.63;;;;;;;6.74;100.00;100833.97;5086604;28;20152;-67
2020/12/13 06:06:07;;;;;;;22.45;11.73;;;;;;;6.71;100.00;100835.81;5087985;28;20048;-68
2020/12/13 06:08:55;;;;;;;21.98;10.93;;;;;;;6.67;100.00;100834.16;5084278;28;20024;-67
2020/12/13 06:11:21;;;;;;;16.45;10.13;;;;;;;6.67;100.00;100835.03;5083955;28;20040;-68
2020/12/13 06:13:52;;;;;;;20.60;10.05;;;;;;;6.68;100.00;100838.53;5096932;28;20058;-66
2020/12/13 06:16:17;;;;;;;22.73;9.40;;;;;;;6.65;100.00;100836.00;5082277;28;20056;-69
2020/12/13 06:18:43;;;;;;;19.08;9.70;;;;;;;6.65;100.00;100838.63;5088543;28;20417;-68
2020/12/13 06:21:10;;;;;;;34.17;12.85;;;;;;;6.56;100.00;100837.09;5086139;28;20040;-68
2020/12/13 06:23:37;;;;;;;20.88;10.30;;;;;;;6.58;100.00;100839.69;5090991;28;20119;-68
2020/12/13 06:26:05;;;;;;;20.10;11.35;;;;;;;6.55;100.00;100839.78;5089184;28;20024;-68
2020/12/13 06:28:30;;;;;;;23.27;11.77;;;;;;;6.60;100.00;100848.38;5093693;28;20573;-69
2020/12/13 06:30:55;;;;;;;27.05;11.50;;;;;;;6.56;100.00;100846.75;5087261;28;20023;-69
2020/12/13 06:33:21;;;;;;;24.02;12.50;;;;;;;6.57;100.00;100851.09;5093912;28;20032;-67
2020/12/13 06:35:46;;;;;;;29.30;12.73;;;;;;;6.57;100.00;100848.47;5088692;28;20031;-67
2020/12/13 06:38:17;;;;;;;22.77;13.38;;;;;;;6.62;100.00;100854.44;5086205;28;20036;-70
2020/12/13 06:40:43;;;;;;;25.75;13.10;;;;;;;6.63;100.00;100861.44;5091955;28;20102;-67
2020/12/13 06:43:09;;;;;;;29.15;12.75;;;;;;;6.63;100.00;100862.31;5093028;28;20497;-68
2020/12/13 06:45:34;;;;;;;25.42;12.27;;;;;;;6.62;100.00;100855.31;5086907;28;20021;-67
2020/12/13 06:48:00;;;;;;;30.08;11.50;;;;;;;6.60;100.00;100853.63;5090785;28;20028;-68
2020/12/13 06:50:25;;;;;;;29.08;11.10;;;;;;;6.63;100.00;100864.06;5091362;28;20370;-67
2020/12/13 06:52:52;;;;;;;31.88;13.32;;;;;;;6.56;100.00;100847.59;5091062;28;20103;-68
2020/12/13 06:55:18;;;;;;;24.67;11.77;;;;;;;6.46;100.00;100849.63;5082584;28;20519;-68
2020/12/13 06:57:46;;;;;;;25.55;11.45;;;;;;;6.45;100.00;100858.41;5096294;28;20019;-68
2020/12/13 07:00:12;;;;;;;22.77;10.00;;;;;;;6.36;100.00;100863.91;5080768;28;20489;-68
2020/12/13 07:02:58;;;;;;;26.35;10.77;;;;;;;6.36;100.00;100868.28;5091065;28;20032;-68
2020/12/13 07:05:53;;;;;;;24.10;9.48;;;;;;;6.32;100.00;100877.13;5086709;28;20036;-66
2020/12/13 07:08:20;;;;;;;19.30;8.73;;;;;;;6.18;100.00;100869.66;5055070;22;20073;-84
2020/12/13 07:10:49;;;;;;;23.27;8.75;;;;;;;6.14;100.00;100875.88;5009900;28;20746;-84
2020/12/13 07:13:18;;;;;;;29.35;9.27;;;;;;;6.16;100.00;100881.94;4998859;28;20116;-84
2020/12/13 07:16:05;;;;;;;24.33;8.10;;;;;;;6.08;100.00;100876.88;5002455;28;20262;-84
2020/12/13 07:18:32;;;;;;;16.42;8.00;;;;;;;6.10;100.00;100887.34;5031810;28;20025;-84
2020/12/13 07:20:58;;;;;;;22.02;8.57;;;;;;;6.07;100.00;100887.41;4997603;28;20017;-84
2020/12/13 07:23:25;;;;;;;19.88;8.10;;;;;;;5.93;100.00;100879.91;5039288;28;20036;-83
2020/12/13 07:25:51;;;;;;;21.85;8.40;;;;;;;5.95;100.00;100897.31;4999038;28;20025;-84
2020/12/13 07:28:18;;;;;;;23.42;7.57;;;;;;;5.93;100.00;100900.88;5002311;28;20037;-83
2020/12/13 07:30:44;;;;;;;24.92;9.07;;;;;;;5.95;100.00;100902.56;5049266;28;20021;-84
2020/12/13 07:33:10;;;;;;;22.00;7.90;;;;;;;5.88;100.00;100893.09;5032974;28;20044;-84
2020/12/13 07:35:35;;;;;;;33.30;9.73;;;;;;;5.83;100.00;100907.22;5031012;28;20033;-84
2020/12/13 07:38:02;;;;;;;21.35;9.10;;;;;;;5.75;100.00;100907.38;5032702;28;20035;-83
2020/12/13 07:40:28;;;;;;;31.08;9.88;;;;;;;5.71;100.00;100905.72;4997291;28;20381;-84
2020/12/13 07:42:56;;;;;;;24.92;11.27;;;;;;;5.65;100.00;100900.63;5046074;28;20033;-84
2020/12/13 07:45:22;;;;;;;24.00;10.10;;;;;;;5.67;100.00;100919.81;5033971;28;20038;-84
2020/12/13 07:47:50;;;;;;;25.58;9.57;;;;;;;5.63;100.00;100924.28;5030606;28;20070;-83
2020/12/13 07:50:15;;;;;;;25.52;9.60;;;;;;;5.54;100.00;100928.88;5032531;28;20030;-84
2020/12/13 07:52:44;;;;;;;28.13;9.85;;;;;;;5.52;100.00;100925.38;5004765;28;20032;-83
2020/12/13 07:55:10;;;;;;;20.63;8.73;;;;;;;5.54;100.00;100932.34;5017207;28;20026;-83
2020/12/13 07:57:36;;;;;;;24.25;9.45;;;;;;;5.47;100.00;100933.34;5035310;28;20025;-83
2020/12/13 08:00:09;;;;;;;28.55;11.40;;;;;;;5.53;100.00;100938.50;5033654;28;20096;-83
2020/12/13 08:02:34;;;;;;;24.02;9.88;;;;;;;5.43;100.00;100945.69;5012801;28;20029;-83
2020/12/13 08:05:00;;;;;;;27.23;10.50;;;;;;;5.41;100.00;100950.09;5026269;28;20021;-83
2020/12/13 08:07:26;;;;;;;25.95;10.93;;;;;;;5.46;100.00;100957.84;5008071;28;20044;-83
2020/12/13 08:09:57;;;;;;;26.95;11.02;;;;;;;5.38;100.00;100958.03;5024994;28;20028;-83
2020/12/13 08:12:30;;;;;;;27.75;11.23;;;;;;;5.35;100.00;100965.94;5032301;28;20044;-83
2020/12/13 08:14:55;;;;;;;23.85;9.57;;;;;;;5.34;100.00;100971.22;5049993;28;20110;-84
2020/12/13 08:17:20;;;;;;;31.27;10.18;;;;;;;5.36;100.00;100972.91;5049688;28;20656;-82
2020/12/13 08:19:49;;;;;;;31.60;11.23;;;;;;;5.32;100.00;100965.13;5061070;28;20036;-82
2020/12/13 08:22:20;;;;;;;23.58;11.05;;;;;;;5.31;100.00;100974.75;5035864;28;20017;-83
2020/12/13 08:24:53;;;;;;;20.63;10.10;;;;;;;5.30;100.00;100980.91;5019763;28;20151;-83
2020/12/13 08:27:19;;;;;;;29.52;9.73;;;;;;;5.35;100.00;100981.66;5052031;28;20576;-84
2020/12/13 08:29:45;;;;;;;28.25;10.73;;;;;;;5.36;100.00;100974.66;5053287;28;20026;-84
2020/12/13 08:32:12;;;;;;;22.83;10.68;;;;;;;5.41;100.00;100976.28;5033135;28;20132;-84
2020/12/13 08:34:37;;;;;;;24.60;10.25;;;;;;;5.40;100.00;100973.72;5048513;28;20037;-84
2020/12/13 08:37:02;;;;;;;22.40;10.70;;;;;;;5.48;100.00;100973.56;5038019;28;20020;-84
2020/12/13 08:39:33;;;;;;;23.77;11.23;;;;;;;5.52;100.00;100983.94;5052346;28;20040;-84
2020/12/13 08:41:59;;;;;;;22.15;9.27;;;;;;;5.52;100.00;100983.06;5057432;28;20052;-84
2020/12/13 08:44:31;;;;;;;20.50;9.30;;;;;;;5.59;100.00;100987.31;5040384;28;20033;-84
2020/12/13 08:46:58;;;;;;;26.25;9.02;;;;;;;5.62;100.00;100984.59;5049240;28;20488;-84
2020/12/13 08:49:26;;;;;;;15.52;7.70;;;;;;;5.99;98.18;100989.94;5034216;28;20032;-84
2020/12/13 08:51:51;;;;;;;26.90;8.75;;;;;;;5.91;97.67;100990.09;5048142;28;20040;-84
2020/12/13 08:54:17;;;;;;;22.38;9.23;;;;;;;5.92;98.14;100999.72;5031137;28;20025;-86
2020/12/13 08:56:42;;;;;;;28.48;8.65;;;;;;;6.13;97.06;101000.13;5052857;28;20070;-84
2020/12/13 08:59:08;;;;;;;16.75;7.93;;;;;;;6.14;96.52;100997.44;5059715;28;20107;-80
2020/12/13 09:01:38;;;;;;;22.10;9.30;;;;;;;6.22;96.71;101000.75;5015449;28;20029;-78
2020/12/13 09:04:16;;;;;;;17.55;7.22;;;;;;;7.69;90.52;101003.81;5043609;28;20031;-79
2020/12/13 09:06:52;;;;;;;14.85;7.45;;;;;;;9.28;83.17;101002.03;5050028;28;20037;-78
2020/12/13 09:09:17;;;;;;;21.20;8.20;;;;;;;8.80;83.38;100997.63;5037752;28;20059;-78
2020/12/13 09:11:42;;;;;;;21.85;8.45;;;;;;;9.80;80.56;101004.53;5026591;28;20025;-78
2020/12/13 09:14:08;;;;;;;13.80;6.72;;;;;;;9.00;82.52;101011.88;5043214;28;20480;-78
2020/12/13 09:16:34;;;;;;;20.77;7.18;;;;;;;9.13;82.02;101012.28;5055148;28;20056;-78
2020/12/13 09:19:09;;;;;;;24.58;7.47;;;;;;;9.73;79.69;101018.88;5049667;28;20031;-78
2020/12/13 09:21:57;;;;;;;14.02;6.35;;;;;;;9.13;81.37;101018.41;5032420;28;20028;-80
2020/12/13 09:24:26;;;;;;;18.35;7.05;;;;;;;8.83;82.34;101017.72;5052453;28;20039;-77
2020/12/13 09:27:05;;;;;;;15.50;7.20;;;;;;;8.66;82.43;101014.81;5049227;28;20108;-77
2020/12/13 09:29:32;;;;;;;19.10;7.07;;;;;;;8.27;84.51;101015.16;5046584;28;20654;-85
2020/12/13 09:31:58;;;;;;;17.95;7.20;;;;;;;8.08;85.02;101017.50;5015626;28;20139;-86
2020/12/13 09:34:24;;;;;;;21.70;8.27;;;;;;;6.95;89.99;101015.53;5036965;28;20041;-85
2020/12/13 09:36:50;;;;;;;23.05;10.60;;;;;;;6.84;90.93;101013.22;5020495;28;20037;-85
2020/12/13 09:39:16;;;;;;;21.17;7.90;;;;;;;6.85;90.85;101021.94;5027489;28;20041;-85
2020/12/13 09:41:42;;;;;;;20.20;8.45;;;;;;;7.17;89.79;101015.81;5015007;28;20041;-84
2020/12/13 09:44:08;;;;;;;19.77;8.90;;;;;;;9.11;82.62;101032.59;5018437;28;20037;-85
2020/12/13 09:46:33;;;;;;;17.95;9.68;;;;;;;10.32;77.85;101016.56;5033096;28;20086;-87
2020/12/13 09:48:58;;;;;;;19.63;8.65;;;;;;;9.88;78.41;101013.00;5016162;28;20052;-87
2020/12/13 09:51:23;;;;;;;18.25;9.75;;;;;;;10.12;77.68;101014.69;5030986;28;20394;-86
2020/12/13 09:53:49;;;;;;;19.83;7.78;;;;;;;10.29;77.00;101035.19;4988302;28;20033;-87
2020/12/13 09:56:17;;;;;;;15.73;7.93;;;;;;;9.64;78.96;101028.00;5009022;28;20474;-86
2020/12/13 09:58:42;;;;;;;25.67;8.70;;;;;;;9.28;79.70;101020.50;5008444;28;20041;-85
2020/12/13 10:01:09;;;;;;;17.80;8.85;;;;;;;9.88;78.92;101023.56;5003230;28;20033;-86
2020/12/13 10:03:35;;;;;;;19.10;8.45;;;;;;;9.83;78.64;101038.72;5023130;28;20032;-86
2020/12/13 10:11:26;;;;;;;18.27;8.95;;;;;;;9.54;79.52;101039.81;5053097;28;20036;-85
2020/12/13 10:13:51;;;;;;;18.55;7.95;;;;;;;9.56;79.98;101025.66;5053053;28;20025;-86
2020/12/13 10:16:17;;;;;;;23.23;8.85;;;;;;;9.67;79.00;101013.81;5060093;28;20063;-87
2020/12/13 10:18:42;;;;;;;25.67;7.53;;;;;;;8.98;80.90;101006.63;5054414;28;20032;-87
2020/12/13 10:21:08;;;;;;;29.77;9.90;;;;;;;9.04;81.27;101027.53;5062740;28;20438;-86
2020/12/13 10:23:33;;;;;;;18.27;8.27;;;;;;;8.98;81.55;101024.22;5056549;28;20029;-87
2020/12/13 10:25:58;;;;;;;14.25;7.43;;;;;;;8.96;82.25;101015.53;5054539;28;20545;-86
2020/12/13 10:28:23;;;;;;;24.27;8.63;;;;;;;9.14;81.87;101024.59;5058389;28;20025;-78
2020/12/13 10:30:50;;;;;;;23.27;8.48;;;;;;;8.48;83.10;101026.81;5053258;28;20032;-78
2020/12/13 10:33:16;;;;;;;21.55;10.45;;;;;;;8.26;84.10;101022.22;5057777;28;20508;-78
2020/12/13 10:35:42;;;;;;;14.18;7.30;;;;;;;8.15;83.49;101019.06;5057290;28;20020;-78
2020/12/13 10:38:07;;;;;;;19.60;7.07;;;;;;;7.95;84.88;101013.56;5054125;28;20466;-77
2020/12/13 10:40:34;;;;;;;19.50;8.70;;;;;;;7.99;84.81;101013.41;5055076;28;20167;-78
2020/12/13 10:43:00;;;;;;;14.82;7.32;;;;;;;7.97;85.04;101014.34;5042522;28;20017;-78
2020/12/13 10:45:25;;;;;;;19.52;6.95;;;;;;;8.13;86.05;101009.47;5056359;28;20032;-78
2020/12/13 10:47:51;;;;;;;25.23;8.10;;;;;;;8.08;85.24;101006.97;5060517;28;20055;-79
2020/12/13 10:50:16;;;;;;;20.00;7.22;;;;;;;8.19;85.03;100999.63;5035007;28;20401;-78
2020/12/13 10:52:41;;;;;;;16.17;7.68;;;;;;;7.99;86.96;101002.88;5054806;28;20059;-78
2020/12/13 10:55:07;;;;;;;19.05;6.97;;;;;;;7.63;87.74;100998.72;5034084;28;20496;-77
2020/12/13 10:57:32;;;;;;;21.90;7.70;;;;;;;7.57;87.81;101004.16;5056720;28;20155;-77
2020/12/13 10:59:57;;;;;;;21.48;7.30;;;;;;;7.35;88.83;101002.16;5053180;28;20036;-78
2020/12/13 11:02:22;;;;;;;18.98;6.82;;;;;;;7.33;89.48;101011.00;5058595;28;20570;-77
2020/12/13 11:04:48;;;;;;;15.57;6.68;;;;;;;7.23;89.32;101005.16;5055250;28;20025;-78
2020/12/13 11:07:13;;;;;;;13.93;6.53;;;;;;;7.23;89.46;101013.03;5058655;28;20049;-78
2020/12/13 11:09:38;;;;;;;16.88;6.32;;;;;;;7.45;90.24;101015.91;5056397;28;20108;-78
2020/12/13 11:12:03;;;;;;;19.60;6.38;;;;;;;7.63;89.03;101015.41;5058849;28;20036;-77
2020/12/13 11:14:29;;;;;;;17.02;7.65;;;;;;;7.61;88.83;101004.03;5055729;28;20025;-78
2020/12/13 11:16:54;;;;;;;18.63;5.70;;;;;;;7.58;88.47;101004.16;5051588;28;20490;-77
2020/12/13 11:19:19;;;;;;;15.55;6.07;;;;;;;7.59;87.85;100997.13;5058478;28;20032;-78
2020/12/13 11:21:45;;;;;;;16.60;6.00;;;;;;;7.70;87.84;100989.75;5055478;28;20029;-77
2020/12/13 11:24:11;;;;;;;17.35;6.43;;;;;;;7.81;87.42;100994.69;5053513;28;20029;-77